Time;durP1;ratioP1;P1;durP2;ratioP2;P2;SDS_P1;SDS_P2;PMS_P1;PMS_P2;Temp;Humidity;BMP_temperature;BMP_pressure;BME280_temperature;BME280_humidity;BME280_pressure;Samples;Min_cycle;Max_cycle;Signal;HPM_P1;HPM_P2
2022/12/11 00:01:24;;;;;;;104.43;66.63;;;-5.40;99.90;-6.60;99706;;;;572047;247;24058;-75
2022/12/11 00:03:51;;;;;;;103.93;66.90;;;-5.40;99.90;-6.60;99714;;;;582241;245;24089;-83
2022/12/11 00:06:20;;;;;;;102.77;65.40;;;-5.40;99.90;-6.60;99712;;;;573636;246;24083;-71
2022/12/11 00:08:52;;;;;;;111.30;65.93;;;-5.40;99.90;-6.60;99704;;;;573429;247;24096;-72
2022/12/11 00:11:20;;;;;;;105.73;65.50;;;-5.40;99.90;-6.60;99702;;;;573746;247;24126;-77
2022/12/11 00:13:48;;;;;;;102.10;67.67;;;-5.40;99.90;-6.50;99713;;;;573023;247;24125;-72
2022/12/11 00:16:16;;;;;;;102.23;65.13;;;-5.30;99.90;-6.50;99719;;;;573060;247;24055;-71
2022/12/11 00:18:44;;;;;;;103.27;68.10;;;-5.30;99.90;-6.50;99712;;;;573340;247;24124;-72
2022/12/11 00:21:17;;;;;;;113.10;68.50;;;-5.20;99.90;-6.40;99714;;;;573234;247;24066;-73
2022/12/11 00:23:42;;;;;;;99.77;65.97;;;-5.20;99.90;-6.30;99721;;;;573194;247;24058;-72
2022/12/11 00:26:10;;;;;;;98.67;65.83;;;-5.10;99.90;-6.20;99715;;;;571991;247;25199;-72
2022/12/11 00:28:41;;;;;;;81.27;57.37;;;-5.00;99.90;-6.10;99711;;;;580303;246;24146;-80
2022/12/11 00:31:06;;;;;;;88.10;58.97;;;-4.90;99.90;-5.90;99722;;;;571809;247;24086;-80
2022/12/11 00:33:34;;;;;;;86.57;59.87;;;-4.70;99.90;-5.80;99728;;;;580831;247;24114;-78
2022/12/11 00:36:02;;;;;;;95.33;63.00;;;-4.50;99.90;-5.70;99720;;;;571945;247;24116;-80
2022/12/11 00:38:30;;;;;;;95.50;62.80;;;-4.40;99.90;-5.60;99721;;;;572036;247;24062;-77
2022/12/11 00:41:00;;;;;;;85.23;60.20;;;-4.30;99.90;-5.40;99723;;;;571789;247;24105;-78
2022/12/11 00:43:28;;;;;;;94.80;60.43;;;-4.20;99.90;-5.30;99724;;;;572041;247;24125;-81
2022/12/11 00:45:56;;;;;;;90.60;59.77;;;-4.10;99.90;-5.20;99726;;;;572400;247;24053;-71
2022/12/11 00:48:24;;;;;;;87.43;61.30;;;-4.00;99.90;-5.10;99730;;;;572845;247;24091;-71
2022/12/11 00:50:52;;;;;;;91.20;60.37;;;-3.90;99.90;-5.00;99723;;;;572952;247;24066;-71
2022/12/11 00:53:20;;;;;;;89.30;59.73;;;-3.80;99.90;-5.00;99734;;;;572879;247;24083;-71
2022/12/11 00:55:48;;;;;;;88.83;59.43;;;-3.70;99.90;-4.80;99732;;;;572304;247;24054;-74
2022/12/11 00:58:16;;;;;;;84.30;56.47;;;-3.60;99.90;-4.80;99730;;;;571885;247;24031;-77
2022/12/11 01:00:44;;;;;;;79.30;53.43;;;-3.50;99.90;-4.70;99724;;;;571827;247;24105;-77
2022/12/11 01:03:15;;;;;;;76.63;54.10;;;-3.40;99.90;-4.60;99721;;;;572001;247;24051;-80
2022/12/11 01:05:40;;;;;;;77.20;53.77;;;-3.40;99.90;-4.60;99726;;;;571583;247;24120;-81
2022/12/11 01:08:08;;;;;;;75.17;53.37;;;-3.30;99.90;-4.50;99723;;;;571998;247;24111;-78
2022/12/11 01:10:36;;;;;;;74.20;49.77;;;-3.20;99.90;-4.40;99720;;;;572166;247;24050;-78
2022/12/11 01:13:03;;;;;;;58.47;38.10;;;-3.20;99.90;-4.30;99712;;;;572458;247;24077;-74
2022/12/11 01:15:35;;;;;;;73.73;47.20;;;-3.00;99.90;-4.20;99720;;;;574541;246;24064;-73
2022/12/11 01:18:02;;;;;;;69.57;43.87;;;-3.00;99.90;-4.10;99711;;;;581755;246;24092;-73
2022/12/11 01:20:31;;;;;;;68.87;45.57;;;-2.90;99.90;-4.10;99708;;;;572913;247;24089;-71
2022/12/11 01:23:03;;;;;;;72.37;46.80;;;-2.80;99.90;-4.00;99712;;;;572889;247;24083;-71
2022/12/11 01:25:31;;;;;;;74.93;52.77;;;-2.80;99.90;-4.00;99705;;;;567771;247;36883;-72
2022/12/11 01:27:56;;;;;;;78.10;54.50;;;-2.70;99.90;-3.90;99713;;;;568023;247;35066;-73
2022/12/11 01:30:24;;;;;;;72.47;47.53;;;-2.70;99.90;-3.90;99716;;;;572827;247;24040;-73
2022/12/11 01:32:51;;;;;;;76.97;50.73;;;-2.60;99.90;-3.80;99697;;;;571891;247;24077;-78
2022/12/11 01:35:19;;;;;;;73.60;47.57;;;-2.60;99.90;-3.80;99710;;;;571815;247;24126;-77
2022/12/11 01:37:49;;;;;;;78.27;52.00;;;-2.50;99.90;-3.70;99701;;;;571970;247;24188;-77
2022/12/11 01:40:16;;;;;;;74.60;50.53;;;-2.50;99.90;-3.70;99699;;;;571820;247;24111;-79
2022/12/11 01:42:44;;;;;;;78.33;51.83;;;-2.50;99.90;-3.70;99697;;;;572277;247;24080;-74
2022/12/11 01:45:21;;;;;;;75.00;48.90;;;-2.50;99.90;-3.60;99701;;;;572036;247;24123;-75
2022/12/11 01:47:52;;;;;;;76.37;47.17;;;-2.40;99.90;-3.60;99701;;;;572144;247;24165;-73
2022/12/11 01:50:17;;;;;;;81.67;50.07;;;-2.40;99.90;-3.60;99698;;;;571773;247;25130;-70
2022/12/11 01:52:45;;;;;;;75.50;47.80;;;-2.40;99.90;-3.60;99698;;;;580340;247;24103;-70
2022/12/11 01:55:13;;;;;;;71.47;46.57;;;-2.40;99.90;-3.60;99695;;;;571671;247;24055;-71
2022/12/11 01:57:45;;;;;;;69.97;44.70;;;-2.40;99.90;-3.50;99685;;;;571648;247;24121;-71
2022/12/11 02:00:13;;;;;;;71.87;45.20;;;-2.40;99.90;-3.50;99677;;;;571761;247;24110;-71
2022/12/11 02:02:38;;;;;;;72.60;48.57;;;-2.40;99.90;-3.50;99682;;;;580066;247;24086;-73
2022/12/11 02:05:06;;;;;;;75.93;48.23;;;-2.30;99.90;-3.50;99680;;;;571730;247;24107;-73
2022/12/11 02:07:45;;;;;;;73.18;49.75;;;-2.40;99.90;-3.40;99671;;;;566929;247;35248;-71
2022/12/11 02:10:13;;;;;;;64.27;42.17;;;-2.30;99.90;-3.40;99687;;;;571695;247;24161;-73
2022/12/11 02:13:02;;;;;;;63.27;43.00;;;-2.30;99.90;-3.30;99688;;;;575969;243;24127;-71
2022/12/11 02:15:36;;;;;;;63.77;42.00;;;-2.20;99.90;-3.30;99678;;;;560820;247;24055;-70
2022/12/11 02:18:17;;;;;;;64.73;42.30;;;-2.10;99.90;-3.20;99679;;;;577266;247;24069;-71
2022/12/11 02:20:54;;;;;;;61.13;40.53;;;-2.10;99.90;-3.20;99673;;;;572022;247;24098;-72
2022/12/11 02:23:44;;;;;;;63.80;40.57;;;-2.00;99.90;-3.20;99677;;;;577395;247;24077;-72
2022/12/11 02:26:30;;;;;;;61.63;39.23;;;-2.10;99.90;-3.20;99671;;;;580070;245;24131;-79
2022/12/11 02:28:57;;;;;;;60.03;39.67;;;-2.00;99.90;-3.20;99669;;;;573157;246;24083;-73
2022/12/11 02:31:34;;;;;;;54.80;39.10;;;-2.00;99.90;-3.20;99675;;;;572337;247;24124;-72
2022/12/11 02:34:30;;;;;;;54.43;37.93;;;-2.00;99.90;-3.20;99672;;;;572764;247;24090;-74
2022/12/11 02:36:58;;;;;;;56.33;37.17;;;-2.00;99.90;-3.20;99676;;;;573133;247;24060;-76
2022/12/11 02:39:25;;;;;;;58.43;39.83;;;-2.00;99.90;-3.20;99671;;;;572319;247;24054;-75
2022/12/11 02:41:53;;;;;;;56.57;37.63;;;-2.00;99.90;-3.10;99687;;;;572286;247;24058;-75
2022/12/11 02:44:24;;;;;;;55.10;39.03;;;-2.00;99.90;-3.10;99695;;;;572281;247;24055;-73
2022/12/11 02:46:56;;;;;;;57.50;37.97;;;-2.00;99.90;-3.20;99680;;;;577297;247;24088;-71
2022/12/11 02:49:21;;;;;;;53.83;36.93;;;-2.00;99.90;-3.20;99681;;;;571730;247;24108;-71
2022/12/11 02:51:49;;;;;;;53.07;33.97;;;-2.00;99.90;-3.20;99679;;;;571433;247;24098;-72
2022/12/11 02:54:17;;;;;;;47.27;34.90;;;-2.00;99.90;-3.10;99682;;;;577406;247;24080;-71
2022/12/11 02:56:48;;;;;;;56.80;37.27;;;-2.00;99.90;-3.10;99677;;;;571315;247;24097;-72
2022/12/11 02:59:16;;;;;;;54.33;35.43;;;-2.00;99.90;-3.10;99680;;;;579819;247;24069;-70
2022/12/11 03:01:44;;;;;;;54.03;36.27;;;-2.00;99.90;-3.00;99687;;;;579605;247;24110;-70
2022/12/11 03:04:16;;;;;;;54.83;36.70;;;-2.00;99.90;-3.00;99688;;;;571761;247;24070;-71
2022/12/11 03:06:40;;;;;;;52.73;35.63;;;-1.90;99.90;-3.00;99684;;;;581076;246;24118;-71
2022/12/11 03:09:08;;;;;;;57.63;38.57;;;-1.90;99.90;-3.00;99692;;;;581142;247;24049;-70
2022/12/11 03:11:36;;;;;;;51.63;35.87;;;-1.90;99.90;-2.90;99682;;;;573292;247;24072;-71
2022/12/11 03:14:08;;;;;;;52.03;35.80;;;-1.80;99.90;-2.90;99683;;;;572889;247;24066;-71
2022/12/11 03:16:38;;;;;;;50.83;33.40;;;-1.80;99.90;-2.90;99677;;;;580580;247;24106;-72
2022/12/11 03:19:12;;;;;;;51.10;33.60;;;-1.70;99.90;-2.80;99685;;;;577690;247;24099;-72
2022/12/11 03:21:55;;;;;;;47.10;32.07;;;-1.70;99.90;-2.80;99677;;;;572188;247;27292;-71
2022/12/11 03:24:34;;;;;;;51.57;32.87;;;-1.70;99.90;-2.80;99678;;;;571709;247;24185;-72
2022/12/11 03:27:24;;;;;;;45.33;30.73;;;-1.60;99.90;-2.70;99666;;;;573110;247;24098;-72
2022/12/11 03:29:55;;;;;;;45.37;29.40;;;-1.60;99.90;-2.70;99680;;;;569328;247;24082;-73
2022/12/11 03:32:23;;;;;;;40.70;27.90;;;-1.60;99.90;-2.70;99669;;;;572273;247;25136;-72
2022/12/11 03:34:51;;;;;;;35.47;25.50;;;-1.60;99.90;-2.80;99676;;;;572085;247;24087;-72
2022/12/11 03:37:19;;;;;;;35.83;25.00;;;-1.60;99.90;-2.80;99683;;;;580304;245;24071;-71
2022/12/11 03:39:50;;;;;;;32.70;23.47;;;-1.70;99.90;-2.90;99668;;;;573190;246;24080;-72
2022/12/11 03:42:18;;;;;;;34.90;23.67;;;-1.80;99.90;-2.90;99659;;;;572812;247;24134;-72
2022/12/11 03:44:46;;;;;;;34.97;24.83;;;-1.80;99.90;-3.00;99665;;;;572642;247;24097;-72
2022/12/11 03:47:13;;;;;;;37.37;25.67;;;-1.90;99.90;-3.00;99656;;;;572541;247;24077;-73
2022/12/11 03:49:41;;;;;;;32.80;23.47;;;-1.90;99.90;-3.00;99662;;;;572370;247;24320;-71
2022/12/11 03:52:09;;;;;;;32.50;24.60;;;-1.90;99.90;-3.00;99673;;;;572463;247;24051;-72
2022/12/11 03:54:37;;;;;;;36.40;24.23;;;-1.90;99.90;-3.00;99658;;;;580958;247;24080;-72
2022/12/11 03:57:05;;;;;;;37.87;25.83;;;-1.90;99.90;-2.90;99651;;;;571732;247;24083;-74
2022/12/11 03:59:33;;;;;;;42.50;32.47;;;-1.80;99.90;-2.90;99652;;;;572246;247;24112;-72
2022/12/11 04:02:09;;;;;;;48.73;35.87;;;-1.80;99.90;-2.90;99657;;;;571994;247;25130;-72
2022/12/11 04:04:30;;;;;;;54.97;37.30;;;-1.80;99.90;-2.90;99651;;;;571852;247;24085;-71
2022/12/11 04:06:58;;;;;;;56.53;38.13;;;-1.80;99.90;-2.90;99664;;;;572077;247;24165;-72
2022/12/11 04:09:26;;;;;;;59.00;37.13;;;-1.80;99.90;-2.90;99655;;;;571963;247;24112;-71
2022/12/11 04:11:53;;;;;;;54.53;38.00;;;-1.80;99.90;-3.00;99658;;;;572190;247;24072;-72
2022/12/11 04:17:07;;;;;;;53.33;37.37;;;-2.00;99.90;-3.10;99655;;;;572484;247;24063;-76
2022/12/11 04:25:08;;;;;;;48.47;32.03;;;-2.00;99.90;-3.00;99647;;;;572979;247;24058;-76
2022/12/11 04:27:48;;;;;;;45.40;33.93;;;-1.90;99.90;-3.00;99646;;;;581760;247;24073;-79
2022/12/11 04:30:18;;;;;;;50.50;35.13;;;-1.90;99.90;-3.00;99646;;;;573099;247;24050;-80
2022/12/11 04:32:46;;;;;;;51.33;34.33;;;-1.90;99.90;-3.00;99649;;;;572331;247;24057;-78
2022/12/11 04:35:14;;;;;;;54.80;35.87;;;-1.90;99.90;-2.90;99648;;;;572086;247;24051;-71
2022/12/11 04:37:45;;;;;;;53.77;36.37;;;-1.80;99.90;-2.90;99652;;;;580803;247;24088;-72
2022/12/11 04:40:13;;;;;;;60.58;42.45;;;-1.80;99.90;-2.80;99651;;;;567042;247;35259;-72
2022/12/11 04:42:38;;;;;;;52.03;34.77;;;-1.70;99.90;-2.80;99650;;;;571838;247;24109;-72
2022/12/11 04:45:07;;;;;;;54.77;34.80;;;-1.70;99.90;-2.80;99644;;;;572232;247;24038;-72
2022/12/11 04:47:35;;;;;;;51.00;36.23;;;-1.60;99.90;-2.70;99659;;;;572471;247;24062;-71
2022/12/11 04:50:03;;;;;;;56.43;36.37;;;-1.60;99.90;-2.70;99656;;;;573338;246;24173;-71
2022/12/11 04:52:31;;;;;;;55.23;35.20;;;-1.60;99.90;-2.60;99654;;;;573085;246;24080;-71
2022/12/11 04:55:00;;;;;;;54.50;36.33;;;-1.50;99.90;-2.60;99647;;;;572788;247;24039;-71
2022/12/11 04:57:28;;;;;;;56.03;36.70;;;-1.50;99.90;-2.60;99650;;;;572424;247;24057;-71
2022/12/11 04:59:56;;;;;;;59.40;38.53;;;-1.50;99.90;-2.60;99644;;;;572306;247;24057;-72
2022/12/11 05:02:24;;;;;;;56.87;38.33;;;-1.50;99.90;-2.60;99649;;;;572546;247;24049;-72
2022/12/11 05:04:52;;;;;;;57.23;38.40;;;-1.50;99.90;-2.60;99645;;;;572496;247;24081;-73
2022/12/11 05:07:19;;;;;;;57.53;37.77;;;-1.50;99.90;-2.60;99647;;;;572061;247;24065;-72
2022/12/11 05:09:50;;;;;;;56.67;38.23;;;-1.50;99.90;-2.50;99637;;;;572035;247;24081;-76
2022/12/11 05:12:15;;;;;;;50.90;34.30;;;-1.50;99.90;-2.50;99646;;;;573032;247;24058;-76
2022/12/11 05:14:43;;;;;;;55.20;35.90;;;-1.40;99.90;-2.60;99638;;;;572826;247;24096;-72
2022/12/11 05:17:12;;;;;;;54.07;37.57;;;-1.40;99.90;-2.50;99638;;;;573348;247;24022;-77
2022/12/11 05:19:39;;;;;;;51.20;35.80;;;-1.40;99.90;-2.50;99638;;;;573347;247;24123;-71
2022/12/11 05:22:07;;;;;;;53.27;35.13;;;-1.40;99.90;-2.50;99642;;;;573317;247;24159;-71
2022/12/11 05:24:35;;;;;;;56.00;37.47;;;-1.40;99.90;-2.50;99637;;;;573528;247;24061;-72
2022/12/11 05:27:03;;;;;;;55.57;38.60;;;-1.40;99.90;-2.50;99641;;;;573505;247;24122;-74
2022/12/11 05:29:31;;;;;;;54.10;36.33;;;-1.40;99.90;-2.40;99640;;;;573470;247;24061;-72
2022/12/11 05:31:59;;;;;;;54.13;35.30;;;-1.30;99.90;-2.40;99634;;;;573195;247;24187;-76
2022/12/11 05:34:27;;;;;;;47.47;31.23;;;-1.30;99.90;-2.40;99638;;;;572207;247;24060;-73
2022/12/11 05:36:58;;;;;;;47.57;33.00;;;-1.30;99.90;-2.40;99638;;;;572124;247;24101;-72
2022/12/11 05:39:22;;;;;;;48.63;33.00;;;-1.30;99.90;-2.40;99628;;;;569724;247;24130;-73
2022/12/11 05:41:50;;;;;;;46.70;30.60;;;-1.30;99.90;-2.40;99625;;;;571977;247;24057;-82
2022/12/11 05:44:18;;;;;;;42.93;28.80;;;-1.30;99.90;-2.40;99630;;;;572397;247;24105;-78
2022/12/11 05:46:46;;;;;;;37.10;23.70;;;-1.30;99.90;-2.30;99625;;;;572775;247;24137;-80
2022/12/11 05:49:14;;;;;;;36.00;25.60;;;-1.30;99.90;-2.30;99616;;;;572728;247;24097;-78
2022/12/11 05:51:42;;;;;;;34.87;24.83;;;-1.20;99.90;-2.30;99617;;;;572527;247;24046;-81
2022/12/11 05:54:13;;;;;;;31.90;22.07;;;-1.20;99.90;-2.20;99613;;;;572466;247;24058;-76
2022/12/11 05:56:38;;;;;;;33.27;23.50;;;-1.20;99.90;-2.20;99609;;;;572151;247;24051;-82
2022/12/11 05:59:06;;;;;;;31.40;22.03;;;-1.10;99.90;-2.10;99617;;;;571956;247;24080;-81
2022/12/11 06:01:37;;;;;;;34.27;21.33;;;-1.00;99.90;-2.10;99618;;;;577612;246;24090;-75
2022/12/11 06:04:07;;;;;;;31.30;20.50;;;-1.00;99.90;-2.00;99611;;;;573044;246;24101;-81
2022/12/11 06:06:32;;;;;;;26.13;17.07;;;-1.00;99.90;-2.00;99615;;;;572875;247;24121;-78
2022/12/11 06:09:04;;;;;;;21.60;15.97;;;-0.90;99.90;-1.90;99604;;;;572422;247;24163;-81
2022/12/11 06:11:31;;;;;;;19.00;14.03;;;-0.80;99.90;-1.80;99603;;;;571903;247;24125;-76
2022/12/11 06:13:56;;;;;;;15.63;12.00;;;-0.80;99.90;-1.70;99604;;;;572119;247;24092;-81
2022/12/11 06:16:24;;;;;;;13.07;8.77;;;-0.70;99.90;-1.70;99606;;;;572828;247;24087;-81
2022/12/11 06:18:52;;;;;;;7.50;5.50;;;-0.60;99.90;-1.50;99611;;;;572027;247;24077;-81
2022/12/11 06:21:29;;;;;;;9.47;6.67;;;-0.50;99.90;-1.50;99613;;;;572369;247;24071;-74
2022/12/11 06:24:00;;;;;;;7.53;6.30;;;-0.40;99.90;-1.40;99601;;;;572421;247;24112;-79
2022/12/11 06:26:28;;;;;;;9.00;5.67;;;-0.40;99.90;-1.30;99609;;;;580659;247;24143;-76
2022/12/11 06:28:56;;;;;;;7.23;6.53;;;-0.30;99.90;-1.30;99600;;;;578199;247;24127;-75
2022/12/11 06:31:21;;;;;;;7.15;5.85;;;-2.00;99.90;-1.20;99614;;;;566479;247;35110;-75
2022/12/11 06:33:49;;;;;;;4.73;4.33;;;-0.20;99.90;-1.10;99599;;;;573307;247;24051;-78
2022/12/11 06:36:17;;;;;;;5.60;4.83;;;-0.20;99.90;-1.10;99609;;;;573745;247;24046;-74
2022/12/11 06:38:44;;;;;;;6.87;4.67;;;-0.10;99.90;-1.10;99611;;;;578593;247;24092;-70
2022/12/11 06:41:13;;;;;;;7.63;4.63;;;-0.10;99.90;-1.00;99599;;;;582327;247;24117;-73
2022/12/11 06:43:41;;;;;;;5.97;4.97;;;0.00;99.90;-1.00;99610;;;;577468;247;24043;-73
2022/12/11 06:46:14;;;;;;;4.80;4.30;;;0.00;99.90;-0.90;99628;;;;572091;247;24085;-72
2022/12/11 06:48:42;;;;;;;5.33;4.83;;;0.10;99.90;-0.80;99616;;;;571942;247;24065;-72
2022/12/11 06:51:10;;;;;;;6.17;4.80;;;0.10;99.90;-0.80;99606;;;;571974;247;24095;-76
2022/12/11 06:53:41;;;;;;;6.10;4.80;;;0.20;99.90;-0.70;99623;;;;571523;247;24111;-72
2022/12/11 06:56:06;;;;;;;5.93;4.77;;;0.20;99.90;-0.70;99632;;;;571669;247;24063;-71
2022/12/11 06:58:33;;;;;;;5.43;4.93;;;0.30;99.90;-0.70;99637;;;;569721;247;24119;-71
2022/12/11 07:01:01;;;;;;;5.50;4.37;;;0.30;99.90;-0.60;99627;;;;571394;247;24117;-71
2022/12/11 07:03:29;;;;;;;6.47;4.97;;;0.40;99.90;-0.60;99624;;;;562909;251;24063;-71
2022/12/11 07:06:03;;;;;;;5.23;4.77;;;0.40;99.90;-0.60;99626;;;;577292;247;24129;-71
2022/12/11 07:08:32;;;;;;;7.53;5.63;;;0.40;99.90;-0.60;99627;;;;580487;247;24122;-77
2022/12/11 07:10:56;;;;;;;7.50;6.53;;;0.40;99.90;-0.60;99629;;;;567294;247;35224;-73
2022/12/11 07:13:25;;;;;;;6.03;5.00;;;0.50;99.90;-0.50;99630;;;;581842;243;24209;-76
2022/12/11 07:15:53;;;;;;;8.50;6.27;;;0.50;99.90;-0.50;99632;;;;573329;246;24092;-72
2022/12/11 07:18:21;;;;;;;8.63;6.03;;;0.60;99.90;-0.40;99620;;;;578024;247;24065;-71
2022/12/11 07:20:49;;;;;;;7.73;5.80;;;0.50;99.90;-0.50;99627;;;;577704;247;24134;-71
2022/12/11 07:23:17;;;;;;;8.70;5.17;;;0.50;99.90;-0.40;99624;;;;577487;247;24060;-73
2022/12/11 07:25:45;;;;;;;6.73;5.63;;;0.50;99.90;-0.40;99618;;;;578040;247;24083;-76
2022/12/11 07:28:13;;;;;;;8.23;6.00;;;0.60;99.90;-0.40;99622;;;;573212;247;24051;-77
2022/12/11 07:30:41;;;;;;;8.50;4.97;;;0.60;99.90;-0.40;99607;;;;577970;247;24068;-73
2022/12/11 07:33:09;;;;;;;6.87;5.40;;;0.60;99.90;-0.40;99615;;;;578157;247;24118;-72
2022/12/11 07:35:37;;;;;;;8.40;5.80;;;0.60;99.90;-0.30;99606;;;;578144;247;24046;-74
2022/12/11 07:38:05;;;;;;;6.70;5.30;;;0.70;99.90;-0.30;99606;;;;573216;247;24183;-71
2022/12/11 07:40:32;;;;;;;8.07;5.57;;;0.70;99.90;-0.20;99607;;;;577433;247;24105;-75
2022/12/11 07:43:01;;;;;;;11.97;6.40;;;0.80;99.90;-0.20;99596;;;;572399;247;24126;-72
2022/12/11 07:45:29;;;;;;;7.83;5.87;;;0.80;99.90;-0.20;99598;;;;577356;247;24121;-81
2022/12/11 07:48:00;;;;;;;11.83;6.80;;;0.80;99.90;-0.10;99601;;;;572161;247;24085;-73
2022/12/11 07:50:25;;;;;;;10.17;7.07;;;0.90;99.90;-0.10;99602;;;;577443;247;24138;-73
2022/12/11 07:52:53;;;;;;;7.83;6.27;;;0.90;99.90;0.00;99597;;;;577128;247;24111;-72
2022/12/11 07:55:21;;;;;;;7.97;6.10;;;0.90;99.90;0.00;99598;;;;576687;247;24096;-71
2022/12/11 07:57:48;;;;;;;8.47;5.80;;;1.00;99.90;0.00;99591;;;;576605;247;24064;-72
2022/12/11 08:00:19;;;;;;;6.73;5.43;;;1.00;99.90;0.10;99595;;;;576506;247;25156;-71
2022/12/11 08:02:44;;;;;;;5.00;4.23;;;1.00;99.90;0.10;99597;;;;579918;247;24088;-74
2022/12/11 08:05:12;;;;;;;5.60;4.53;;;1.10;99.90;0.10;99587;;;;576807;247;24081;-72
2022/12/11 08:07:41;;;;;;;6.97;4.83;;;1.10;99.90;0.10;99597;;;;576541;247;24129;-73
2022/12/11 08:10:09;;;;;;;5.53;4.43;;;1.10;99.90;0.20;99598;;;;576851;247;24071;-72
2022/12/11 08:12:37;;;;;;;5.43;4.67;;;1.10;99.90;0.30;99614;;;;580266;243;24110;-72
2022/12/11 08:15:05;;;;;;;5.80;4.60;;;1.20;99.90;0.30;99607;;;;576912;247;24087;-73
2022/12/11 08:17:33;;;;;;;5.80;3.90;;;1.20;99.90;0.30;99608;;;;571864;247;24124;-72
2022/12/11 08:20:01;;;;;;;4.43;3.87;;;1.20;99.90;0.30;99599;;;;576894;247;25151;-72
2022/12/11 08:22:29;;;;;;;7.50;5.07;;;1.20;99.90;0.30;99607;;;;576897;247;24061;-72
2022/12/11 08:24:58;;;;;;;5.17;4.60;;;1.20;99.90;0.30;99612;;;;578318;246;24095;-73
2022/12/11 08:27:29;;;;;;;5.27;4.40;;;1.20;99.90;0.30;99618;;;;577703;246;24110;-76
2022/12/11 08:29:55;;;;;;;5.90;4.50;;;1.30;99.90;0.30;99607;;;;571998;247;24069;-71
2022/12/11 08:32:22;;;;;;;4.40;4.00;;;1.30;99.90;0.30;99617;;;;577429;247;24050;-72
2022/12/11 08:34:50;;;;;;;5.03;4.60;;;1.30;99.90;0.30;99622;;;;577149;247;24122;-72
2022/12/11 08:37:18;;;;;;;4.73;4.33;;;1.30;99.90;0.30;99618;;;;572279;247;24120;-72
2022/12/11 08:39:46;;;;;;;5.93;4.87;;;1.30;99.90;0.30;99612;;;;577189;247;24111;-72
2022/12/11 08:42:15;;;;;;;4.57;4.17;;;1.30;99.90;0.30;99616;;;;577002;247;24088;-71
2022/12/11 08:44:43;;;;;;;12.77;10.37;;;1.30;99.90;0.30;99627;;;;576932;247;24058;-72
2022/12/11 08:47:10;;;;;;;17.57;13.40;;;1.30;99.90;0.10;99631;;;;576822;247;24087;-72
2022/12/11 08:49:38;;;;;;;22.10;14.83;;;1.20;99.90;-0.10;99637;;;;576979;247;24109;-72
2022/12/11 08:52:07;;;;;;;22.37;16.23;;;0.80;99.90;-0.30;99638;;;;571705;247;24105;-70
2022/12/11 08:54:35;;;;;;;20.07;15.60;;;0.80;99.90;-0.50;99635;;;;571561;247;25102;-72
2022/12/11 08:57:03;;;;;;;21.07;16.03;;;0.60;99.90;-0.70;99640;;;;571778;247;24080;-73
2022/12/11 08:59:31;;;;;;;19.60;13.87;;;0.50;99.90;-0.80;99636;;;;571699;247;24064;-72
2022/12/11 09:02:02;;;;;;;24.07;15.43;;;0.30;99.90;-0.90;99637;;;;571498;247;24065;-72
2022/12/11 09:04:27;;;;;;;21.03;15.70;;;0.20;99.90;-1.00;99632;;;;571327;247;24167;-72
2022/12/11 09:06:55;;;;;;;22.43;16.83;;;0.10;99.90;-1.10;99630;;;;572511;247;24069;-72
2022/12/11 09:09:25;;;;;;;21.77;15.43;;;-0.10;99.90;-1.30;99620;;;;572097;247;24058;-73
2022/12/11 09:11:50;;;;;;;24.87;16.30;;;-0.20;99.90;-1.40;99623;;;;580563;247;25154;-73
2022/12/11 09:14:18;;;;;;;24.77;16.23;;;-0.30;99.90;-1.50;99620;;;;572129;247;24085;-72
2022/12/11 09:16:46;;;;;;;27.87;17.23;;;-0.40;99.90;-1.50;99628;;;;571883;247;24180;-73
2022/12/11 09:19:18;;;;;;;25.87;16.10;;;-0.40;99.90;-1.50;99632;;;;572188;247;24051;-74
2022/12/11 09:21:46;;;;;;;28.67;17.97;;;-0.40;99.90;-1.50;99632;;;;571814;247;24089;-72
2022/12/11 09:24:14;;;;;;;29.50;17.67;;;-0.40;99.90;-1.50;99633;;;;571992;247;24164;-73
2022/12/11 09:26:39;;;;;;;29.53;18.60;;;-0.50;99.90;-1.50;99619;;;;572190;247;24115;-74
2022/12/11 09:29:09;;;;;;;25.70;17.03;;;-0.40;99.90;-1.50;99617;;;;572465;247;24077;-75
2022/12/11 09:31:35;;;;;;;30.63;17.83;;;-0.40;99.90;-1.40;99613;;;;572843;247;24069;-73
2022/12/11 09:34:03;;;;;;;22.00;14.97;;;-0.40;99.90;-1.30;99609;;;;573047;247;24089;-74
2022/12/11 09:36:31;;;;;;;19.53;14.03;;;-0.30;99.90;-1.20;99606;;;;574543;246;24053;-78
2022/12/11 09:39:01;;;;;;;22.13;14.20;;;-0.20;99.90;-1.20;99603;;;;583080;246;24091;-77
2022/12/11 09:41:44;;;;;;;20.47;14.23;;;-0.20;99.90;-1.20;99601;;;;574025;247;24076;-76
2022/12/11 09:44:31;;;;;;;16.60;13.60;;;-0.10;99.90;-1.10;99597;;;;579254;247;24088;-77
2022/12/11 09:46:59;;;;;;;18.37;13.23;;;-0.10;99.90;-1.10;99605;;;;578856;247;24132;-74
2022/12/11 09:49:39;;;;;;;20.20;13.83;;;-0.10;99.90;-1.00;99615;;;;572835;247;24039;-74
2022/12/11 09:52:25;;;;;;;16.80;12.40;;;0.00;99.90;-1.00;99607;;;;578149;247;24084;-73
2022/12/11 09:54:53;;;;;;;17.93;13.47;;;0.10;99.90;-0.80;99607;;;;562946;253;25228;-73
2022/12/11 09:57:45;;;;;;;19.77;12.30;;;0.10;99.90;-0.80;99603;;;;581264;246;24055;-74
2022/12/11 10:00:18;;;;;;;14.60;11.33;;;0.20;99.90;-0.70;99609;;;;570944;247;24087;-74
2022/12/11 10:03:06;;;;;;;12.90;10.70;;;0.30;99.90;-0.60;99597;;;;573283;247;24069;-73
2022/12/11 10:05:44;;;;;;;8.73;7.83;;;0.40;99.90;-0.60;99591;;;;571287;247;24128;-73
2022/12/11 10:08:26;;;;;;;9.80;8.30;;;0.50;99.90;-0.50;99592;;;;573303;247;24117;-73
2022/12/11 10:10:57;;;;;;;9.30;6.67;;;0.50;99.90;-0.50;99600;;;;573375;247;24094;-81
2022/12/11 10:13:37;;;;;;;7.90;6.70;;;0.50;99.90;-0.50;99597;;;;572455;247;24058;-75
2022/12/11 10:16:13;;;;;;;9.93;7.90;;;0.60;99.90;-0.40;99592;;;;568872;247;24130;-72
2022/12/11 10:18:41;;;;;;;9.30;7.17;;;0.60;99.90;-0.40;99608;;;;571666;247;24070;-72
2022/12/11 10:21:10;;;;;;;7.47;6.73;;;0.60;99.90;-0.50;99600;;;;571458;247;24106;-73
2022/12/11 10:23:56;;;;;;;7.30;6.60;;;0.60;99.90;-0.40;99603;;;;571733;247;24086;-77
2022/12/11 10:26:26;;;;;;;8.20;6.33;;;0.60;99.90;-0.50;99595;;;;576974;247;24054;-74
2022/12/11 10:28:52;;;;;;;6.77;6.13;;;0.60;99.90;-0.40;99593;;;;571638;247;24093;-72
2022/12/11 10:31:38;;;;;;;6.23;5.17;;;0.60;99.90;-0.40;99589;;;;576941;247;24100;-75
2022/12/11 10:34:15;;;;;;;7.23;6.53;;;0.60;99.90;-0.40;99582;;;;571879;247;24097;-72
2022/12/11 10:36:43;;;;;;;8.23;6.63;;;0.70;99.90;-0.30;99579;;;;571626;247;24057;-73
2022/12/11 10:39:16;;;;;;;6.13;5.53;;;0.70;99.90;-0.30;99583;;;;572008;247;24087;-74
2022/12/11 10:41:47;;;;;;;8.43;6.47;;;0.70;99.90;-0.20;99565;;;;571779;247;24092;-73
2022/12/11 10:44:24;;;;;;;9.53;6.10;;;0.80;99.90;-0.20;99561;;;;572213;247;24065;-73
2022/12/11 10:47:12;;;;;;;9.00;6.73;;;0.80;99.90;-0.20;99551;;;;572388;246;24087;-72
2022/12/11 10:49:52;;;;;;;6.70;6.00;;;0.90;99.90;-0.10;99556;;;;573447;246;24095;-72
2022/12/11 10:52:20;;;;;;;7.03;6.33;;;0.90;99.90;-0.10;99551;;;;573291;247;24096;-73
2022/12/11 10:54:48;;;;;;;7.97;6.00;;;0.90;99.90;-0.10;99545;;;;581760;247;24083;-74
2022/12/11 10:57:15;;;;;;;7.17;5.67;;;0.90;99.90;-0.10;99541;;;;581108;247;25192;-72
2022/12/11 10:59:43;;;;;;;7.97;6.57;;;0.90;99.90;-0.10;99533;;;;577624;247;24104;-72
2022/12/11 11:02:39;;;;;;;10.70;5.60;;;0.90;99.90;0.00;99529;;;;572362;247;24085;-71
2022/12/11 11:05:13;;;;;;;7.53;5.10;;;1.00;99.90;0.00;99522;;;;572389;247;24063;-72
2022/12/11 11:07:41;;;;;;;5.40;4.83;;;1.00;99.90;0.00;99521;;;;580100;247;24094;-72
2022/12/11 11:10:10;;;;;;;6.83;5.43;;;1.10;99.90;0.20;99515;;;;571815;247;24116;-72
2022/12/11 11:12:38;;;;;;;5.37;4.63;;;1.10;99.90;0.30;99510;;;;570237;243;24132;-72
2022/12/11 11:15:24;;;;;;;7.60;5.23;;;1.20;99.90;0.30;99514;;;;572116;247;24131;-72
2022/12/11 11:17:52;;;;;;;7.87;4.97;;;1.30;99.90;0.40;99508;;;;570703;247;24046;-72
2022/12/11 11:20:20;;;;;;;6.68;4.87;;;1.50;99.90;0.50;99517;;;;575823;247;35106;-72
2022/12/11 11:22:51;;;;;;;5.07;2.83;;;1.40;99.90;0.50;99505;;;;572467;242;24179;-84
2022/12/11 11:25:22;;;;;;;2.30;2.10;;;1.50;99.90;0.60;99511;;;;582481;245;24118;-84
2022/12/11 11:27:53;;;;;;;2.77;2.27;;;1.50;99.90;0.50;99508;;;;582949;246;24136;-84
2022/12/11 11:30:24;;;;;;;4.27;3.63;;;1.50;99.90;0.50;99487;;;;573155;246;24083;-83